createdAt,value
2016-09-11T00:02:45.047Z,"    0"
2016-09-11T00:07:41.514Z,"    0"
2016-09-11T00:12:38.126Z,"    0"
2016-09-11T00:17:34.775Z,"    0"
2016-09-11T00:22:31.227Z,"    0"
2016-09-11T00:27:27.945Z,"    0"
2016-09-11T00:32:24.543Z,"    0"
2016-09-11T00:37:21.585Z,"    0"
2016-09-11T00:42:18.115Z,"    0"
2016-09-11T00:47:17.503Z,"    0"
2016-09-11T00:52:13.457Z,"    0"
2016-09-11T00:57:10.042Z,"    0"
2016-09-11T01:02:06.730Z,"    0"
2016-09-11T01:07:03.258Z,"    0"
2016-09-11T01:12:00.778Z,"    0"
2016-09-11T01:16:57.048Z,"    0"
2016-09-11T01:21:53.712Z,"    0"
2016-09-11T01:26:50.320Z,"    0"
2016-09-11T01:31:46.996Z,"    0"
2016-09-11T01:36:43.543Z,"    0"
2016-09-11T01:41:39.841Z,"    0"
2016-09-11T01:46:36.516Z,"    0"
2016-09-11T01:51:33.123Z,"    0"
2016-09-11T01:56:29.821Z,"    0"
2016-09-11T02:01:26.466Z,"    0"
2016-09-11T02:06:23.104Z,"    0"
2016-09-11T02:11:19.681Z,"    0"
2016-09-11T02:16:16.481Z,"    0"
2016-09-11T02:21:15.465Z,"    0"
2016-09-11T02:26:11.458Z,"    0"
2016-09-11T02:31:08.116Z,"    0"
2016-09-11T02:36:04.675Z,"    0"
2016-09-11T02:41:01.292Z,"    0"
2016-09-11T02:45:58.361Z,"    0"
2016-09-11T02:50:54.796Z,"    0"
2016-09-11T02:55:51.694Z,"    0"
2016-09-11T03:00:48.350Z,"    0"
2016-09-11T03:05:46.434Z,"    0"
2016-09-11T03:10:43.330Z,"    0"
2016-09-11T03:15:41.440Z,"    0"
2016-09-11T03:20:37.668Z,"    0"
2016-09-11T03:25:34.227Z,"    0"
2016-09-11T03:30:30.752Z,"    0"
2016-09-11T03:35:27.485Z,"    0"
2016-09-11T03:40:24.265Z,"    0"
2016-09-11T03:45:21.094Z,"    0"
2016-09-11T03:50:17.682Z,"    0"
2016-09-11T03:55:14.674Z,"    0"
2016-09-11T04:00:11.307Z,"    0"
2016-09-11T04:05:07.795Z,"    0"
2016-09-11T04:10:04.675Z,"    0"
2016-09-11T04:15:01.522Z,"    0"
2016-09-11T04:19:58.136Z,"    0"
2016-09-11T04:25:06.314Z,"    0"
2016-09-11T04:29:58.702Z,"    0"
2016-09-11T04:34:55.220Z,"    0"
2016-09-11T04:39:51.869Z,"    0"
2016-09-11T04:44:48.648Z,"    0"
2016-09-11T04:49:45.493Z,"    0"
2016-09-11T04:54:43.122Z,"    0"
2016-09-11T04:59:39.557Z,"    0"
2016-09-11T05:04:36.160Z,"    0"
2016-09-11T05:09:32.910Z,"    0"
2016-09-11T05:14:29.957Z,"    0"
2016-09-11T05:19:27.284Z,"    0"
2016-09-11T05:24:23.662Z,"    0"
2016-09-11T05:29:20.354Z,"    0"
2016-09-11T05:34:17.662Z,"    0"
2016-09-11T05:39:14.316Z,"    0"
2016-09-11T05:44:10.907Z,"    0"
2016-09-11T05:49:07.531Z,"    5"
2016-09-11T05:54:04.132Z,"    5"
2016-09-11T05:59:01.105Z,"    5"
2016-09-11T06:03:57.763Z,"    5"
2016-09-11T06:08:54.503Z,"    5"
2016-09-11T06:13:51.684Z,"    5"
2016-09-11T06:18:48.323Z,"    5"
2016-09-11T06:23:45.239Z,"   10"
2016-09-11T06:28:41.826Z,"   10"
2016-09-11T06:33:38.946Z,"   10"
2016-09-11T06:38:36.068Z,"   10"
2016-09-11T06:43:35.720Z,"   10"
2016-09-11T06:48:32.052Z,"   10"
2016-09-11T06:53:31.528Z,"   10"
2016-09-11T06:58:27.710Z,"   10"
2016-09-11T07:03:24.601Z,"   15"
2016-09-11T07:08:21.234Z,"   10"
2016-09-11T07:13:17.982Z,"   10"
2016-09-11T07:18:14.444Z,"   10"
2016-09-11T07:23:11.976Z,"   15"
2016-09-11T07:28:08.731Z,"   15"
2016-09-11T07:33:06.359Z,"   15"
2016-09-11T07:38:04.762Z,"   15"
2016-09-11T07:43:01.457Z,"   15"
2016-09-11T07:47:58.271Z,"   20"
2016-09-11T07:52:55.587Z,"   15"
2016-09-11T07:57:52.408Z,"   20"
2016-09-11T08:02:49.065Z,"   25"
2016-09-11T08:07:46.275Z,"   30"
2016-09-11T08:12:43.790Z,"   35"
2016-09-11T08:17:40.651Z,"   45"
2016-09-11T08:22:37.775Z,"   45"
2016-09-11T08:27:34.729Z,"   40"
2016-09-11T08:32:31.532Z,"   35"
2016-09-11T08:37:28.246Z,"   35"
2016-09-11T08:42:28.006Z,"   40"
2016-09-11T08:47:24.362Z,"   30"
2016-09-11T08:52:20.918Z,"   40"
2016-09-11T08:57:17.546Z,"   65"
2016-09-11T09:02:14.223Z,"   25"
2016-09-11T09:07:10.610Z,"   25"
2016-09-11T09:12:07.109Z,"   25"
2016-09-11T09:17:06.231Z,"   25"
2016-09-11T09:22:02.190Z,"   25"
2016-09-11T09:26:58.972Z,"   25"
2016-09-11T09:31:55.597Z,"   20"
2016-09-11T09:36:55.207Z,"   20"
2016-09-11T09:41:51.459Z,"   20"
2016-09-11T09:46:48.071Z,"   20"
2016-09-11T09:51:45.411Z,"   20"
2016-09-11T09:56:42.152Z,"   20"
2016-09-11T10:01:39.489Z,"   20"
2016-09-11T10:06:36.146Z,"   20"
2016-09-11T10:11:33.283Z,"   20"
2016-09-11T10:16:30.019Z,"   20"
2016-09-11T10:21:26.689Z,"   20"
2016-09-11T10:26:23.328Z,"   20"
2016-09-11T10:31:20.316Z,"   20"
2016-09-11T10:36:16.921Z,"   20"
2016-09-11T10:41:13.538Z,"   20"
2016-09-11T10:46:10.508Z,"   20"
2016-09-11T10:51:06.865Z,"   20"
2016-09-11T10:56:03.563Z,"   20"
2016-09-11T11:01:00.579Z,"   15"
2016-09-11T11:05:57.113Z,"   15"
2016-09-11T11:10:53.843Z,"   15"
2016-09-11T11:15:50.518Z,"   15"
2016-09-11T11:20:47.150Z,"   20"
2016-09-11T11:25:43.911Z,"   20"
2016-09-11T11:30:40.765Z,"   20"
2016-09-11T11:35:37.434Z,"   15"
2016-09-11T11:40:34.110Z,"   20"
2016-09-11T11:45:30.832Z,"   15"
2016-09-11T11:50:27.552Z,"   15"
2016-09-11T11:55:24.130Z,"   15"
2016-09-11T12:00:20.762Z,"   15"
2016-09-11T12:05:17.325Z,"   15"
2016-09-11T12:10:13.900Z,"   15"
2016-09-11T12:15:10.871Z,"   20"
2016-09-11T12:20:07.533Z,"   20"
2016-09-11T12:25:04.381Z,"   20"
2016-09-11T12:30:01.387Z,"   20"
2016-09-11T12:34:58.214Z,"   20"
2016-09-11T12:39:54.878Z,"   20"
2016-09-11T12:44:51.479Z,"   15"
2016-09-11T12:49:48.123Z,"   15"
2016-09-11T12:54:44.983Z,"   15"
2016-09-11T12:59:41.609Z,"   15"
2016-09-11T13:04:38.442Z,"   15"
2016-09-11T13:09:35.122Z,"   15"
2016-09-11T13:14:31.826Z,"   15"
2016-09-11T13:19:28.746Z,"   15"
2016-09-11T13:24:25.527Z,"   15"
2016-09-11T13:29:22.286Z,"   15"
2016-09-11T13:34:22.352Z,"   15"
2016-09-11T13:39:18.728Z,"   15"
2016-09-11T13:44:15.218Z,"   15"
2016-09-11T13:49:11.907Z,"   15"
2016-09-11T13:54:08.708Z,"   15"
2016-09-11T13:59:07.618Z,"   15"
2016-09-11T14:04:04.038Z,"   15"
2016-09-11T14:09:00.771Z,"   15"
2016-09-11T14:13:57.382Z,"   15"
2016-09-11T14:18:54.054Z,"   15"
2016-09-11T14:23:50.756Z,"   15"
2016-09-11T14:28:47.389Z,"   15"
2016-09-11T14:33:46.293Z,"   15"
2016-09-11T14:38:42.473Z,"   15"
2016-09-11T14:43:39.304Z,"   10"
2016-09-11T14:48:36.252Z,"   10"
2016-09-11T14:53:33.417Z,"   10"
2016-09-11T14:58:30.212Z,"   10"
2016-09-11T15:03:27.353Z,"   10"
2016-09-11T15:08:25.484Z,"   10"
2016-09-11T15:13:22.407Z,"   10"
2016-09-11T15:18:19.126Z,"   10"
2016-09-11T15:23:15.901Z,"   10"
2016-09-11T15:28:12.621Z,"    5"
2016-09-11T15:33:11.860Z,"    5"
2016-09-11T15:38:07.895Z,"    5"
2016-09-11T15:43:05.002Z,"    5"
2016-09-11T15:48:01.700Z,"    5"
2016-09-11T15:53:01.405Z,"    5"
2016-09-11T15:57:57.346Z,"    5"
2016-09-11T16:02:53.927Z,"    5"
2016-09-11T16:07:50.563Z,"    5"
2016-09-11T16:12:47.018Z,"    5"
2016-09-11T16:17:43.615Z,"    5"
2016-09-11T16:22:40.096Z,"    5"
2016-09-11T16:27:36.906Z,"    5"
2016-09-11T16:32:33.579Z,"    5"
2016-09-11T16:37:30.132Z,"    5"
2016-09-11T16:42:26.840Z,"    5"
2016-09-11T16:47:23.391Z,"    5"
2016-09-11T16:52:20.752Z,"    5"
2016-09-11T16:57:17.458Z,"    0"
2016-09-11T17:02:14.480Z,"    0"
2016-09-11T17:07:11.323Z,"    0"
2016-09-11T17:12:08.326Z,"    0"
2016-09-11T17:17:07.453Z,"    0"
2016-09-11T17:22:03.353Z,"    0"
2016-09-11T17:27:00.280Z,"    0"
2016-09-11T17:31:59.261Z,"    0"
2016-09-11T17:36:55.653Z,"    0"
2016-09-11T17:41:52.267Z,"    0"
2016-09-11T17:46:48.791Z,"    0"
2016-09-11T17:51:45.335Z,"    0"
2016-09-11T17:56:42.133Z,"    0"
2016-09-11T18:01:38.662Z,"    0"
2016-09-11T18:06:35.535Z,"    0"
2016-09-11T18:11:32.549Z,"    0"
2016-09-11T18:16:29.461Z,"    0"
2016-09-11T18:21:26.074Z,"    0"
2016-09-11T18:26:22.757Z,"    0"
2016-09-11T18:31:19.346Z,"    0"
2016-09-11T18:36:15.941Z,"    0"
2016-09-11T18:41:12.525Z,"    0"
2016-09-11T18:46:09.178Z,"    0"
2016-09-11T18:51:06.185Z,"    0"
2016-09-11T18:56:02.815Z,"    0"
2016-09-11T19:00:59.544Z,"    0"
2016-09-11T19:05:56.108Z,"    0"
2016-09-11T19:10:52.694Z,"    0"
2016-09-11T19:15:49.847Z,"    0"
2016-09-11T19:20:46.827Z,"    0"
2016-09-11T19:25:43.540Z,"    0"
2016-09-11T19:30:40.246Z,"    0"
2016-09-11T19:35:36.920Z,"    0"
2016-09-11T19:40:33.576Z,"    0"
2016-09-11T19:45:30.536Z,"    0"
2016-09-11T19:50:27.232Z,"    0"
2016-09-11T19:55:23.911Z,"    0"
2016-09-11T20:00:20.517Z,"    0"
2016-09-11T20:05:17.121Z,"    0"
2016-09-11T20:10:13.698Z,"    0"
2016-09-11T20:15:10.220Z,"    0"
2016-09-11T20:20:06.913Z,"    0"
2016-09-11T20:25:03.481Z,"    0"
2016-09-11T20:30:00.309Z,"    0"
2016-09-11T20:34:57.288Z,"    0"
2016-09-11T20:39:53.865Z,"    0"
2016-09-11T20:44:50.525Z,"    0"
2016-09-11T20:49:47.077Z,"    0"
2016-09-11T20:54:43.929Z,"    0"
2016-09-11T20:59:40.735Z,"    0"
2016-09-11T21:04:37.272Z,"    0"
2016-09-11T21:09:33.794Z,"    0"
2016-09-11T21:14:30.643Z,"    0"
2016-09-11T21:19:27.311Z,"    0"
2016-09-11T21:24:23.879Z,"    0"
2016-09-11T21:29:20.475Z,"    0"
2016-09-11T21:34:18.739Z,"    0"
2016-09-11T21:39:14.983Z,"    0"
2016-09-11T21:44:12.072Z,"    0"
2016-09-11T21:49:08.759Z,"    0"
2016-09-11T21:54:05.451Z,"    0"
2016-09-11T21:59:02.273Z,"    0"
2016-09-11T22:03:58.689Z,"    0"
2016-09-11T22:08:55.081Z,"    0"
2016-09-11T22:13:52.061Z,"    0"
2016-09-11T22:18:48.685Z,"    0"
2016-09-11T22:23:45.193Z,"    0"
2016-09-11T22:28:41.836Z,"    0"
2016-09-11T22:33:39.504Z,"    0"
2016-09-11T22:38:36.395Z,"    0"
2016-09-11T22:43:32.813Z,"    0"
2016-09-11T22:48:29.317Z,"    0"
2016-09-11T22:53:25.987Z,"    0"
2016-09-11T22:58:22.485Z,"    0"
2016-09-11T23:03:19.101Z,"    0"
2016-09-11T23:08:15.657Z,"    0"
2016-09-11T23:13:12.542Z,"    0"
2016-09-11T23:18:09.047Z,"    0"
2016-09-11T23:23:05.556Z,"    0"
2016-09-11T23:28:02.277Z,"    0"
2016-09-11T23:32:58.854Z,"    0"
2016-09-11T23:37:55.532Z,"    0"
2016-09-11T23:42:52.540Z,"    0"
2016-09-11T23:47:49.118Z,"    0"
2016-09-11T23:52:45.990Z,"    0"
2016-09-11T23:57:42.598Z,"    0"
